Time;durP1;ratioP1;P1;durP2;ratioP2;P2;SDS_P1;SDS_P2;PMS_P1;PMS_P2;Temp;Humidity;BMP_temperature;BMP_pressure;BME280_temperature;BME280_humidity;BME280_pressure;Samples;Min_cycle;Max_cycle;Signal;HPM_P1;HPM_P2
2021/12/27 00:05:21;;;;;;;1.98;1.20;;;2.50;99.90;;;;;;21073550;28;20500;-51
2021/12/27 00:15:25;;;;;;;2.22;1.00;;;2.10;99.90;;;;;;21073477;28;20050;-50
2021/12/27 00:25:29;;;;;;;1.20;0.70;;;2.00;99.90;;;;;;21071957;28;20040;-51
2021/12/27 00:35:34;;;;;;;1.58;0.77;;;1.90;99.90;;;;;;21071142;28;20028;-49
2021/12/27 00:45:36;;;;;;;2.22;0.60;;;2.00;99.90;;;;;;21070648;28;20471;-50
2021/12/27 00:55:39;;;;;;;0.50;0.30;;;2.10;99.90;;;;;;21069129;28;20487;-50
2021/12/27 01:05:41;;;;;;;1.58;0.50;;;2.40;99.90;;;;;;21069064;28;20391;-50
2021/12/27 01:15:51;;;;;;;1.42;0.60;;;2.50;99.90;;;;;;21069017;28;20040;-51
2021/12/27 01:25:54;;;;;;;1.57;0.77;;;2.40;99.90;;;;;;21050839;28;20454;-52
2021/12/27 01:35:59;;;;;;;0.80;0.40;;;2.30;99.90;;;;;;21066866;28;20093;-53
2021/12/27 01:46:05;;;;;;;1.00;0.52;;;2.10;99.90;;;;;;21066329;28;20028;-51
2021/12/27 01:56:09;;;;;;;1.42;0.38;;;2.00;99.90;;;;;;21065914;28;20446;-50
2021/12/27 02:06:14;;;;;;;2.38;1.20;;;1.90;99.90;;;;;;21067864;28;20136;-51
2021/12/27 02:16:23;;;;;;;2.40;0.95;;;2.00;99.90;;;;;;21082053;28;20121;-49
2021/12/27 02:26:25;;;;;;;3.20;1.60;;;1.90;99.90;;;;;;21082540;28;20386;-49
2021/12/27 02:36:29;;;;;;;3.92;2.30;;;1.80;99.90;;;;;;21081280;28;20281;-52
2021/12/27 02:46:31;;;;;;;7.53;4.43;;;2.00;99.90;;;;;;21081597;28;20549;-50
2021/12/27 02:56:35;;;;;;;8.77;4.82;;;2.20;99.90;;;;;;21079287;28;20089;-50
2021/12/27 03:06:37;;;;;;;5.25;3.10;;;2.10;99.90;;;;;;21078217;28;20028;-53
2021/12/27 03:16:40;;;;;;;4.90;2.65;;;2.20;99.90;;;;;;21077415;28;20036;-50
2021/12/27 03:26:42;;;;;;;4.93;2.83;;;2.10;99.90;;;;;;21076780;28;20097;-51
2021/12/27 03:36:45;;;;;;;2.40;1.40;;;2.10;99.90;;;;;;21076535;28;20105;-50
2021/12/27 03:46:48;;;;;;;1.60;1.00;;;1.90;99.90;;;;;;21075781;28;20552;-51
2021/12/27 03:56:50;;;;;;;0.93;0.43;;;2.00;99.90;;;;;;21074498;28;20028;-49
2021/12/27 04:06:52;;;;;;;1.33;0.45;;;2.00;99.90;;;;;;21056483;28;20040;-50
2021/12/27 04:17:12;;;;;;;1.58;0.80;;;2.00;99.90;;;;;;21074343;28;20149;-50
2021/12/27 04:27:15;;;;;;;1.90;0.75;;;2.00;99.90;;;;;;21072147;28;20032;-53
2021/12/27 04:37:18;;;;;;;1.40;0.57;;;1.50;99.90;;;;;;21070569;28;20065;-51
2021/12/27 04:47:21;;;;;;;2.47;0.40;;;1.20;99.90;;;;;;21070366;28;20444;-49
2021/12/27 04:57:24;;;;;;;0.90;0.45;;;1.00;99.90;;;;;;21070016;28;20109;-52
2021/12/27 05:07:26;;;;;;;1.83;0.63;;;1.40;99.90;;;;;;21070930;28;20492;-53
2021/12/27 05:17:29;;;;;;;0.80;0.40;;;1.20;99.90;;;;;;21068070;28;20093;-50
2021/12/27 05:27:31;;;;;;;1.60;0.70;;;0.90;99.90;;;;;;21067351;28;20041;-49
2021/12/27 05:37:33;;;;;;;1.35;0.57;;;0.80;99.90;;;;;;21066853;28;20098;-52
2021/12/27 05:47:37;;;;;;;1.83;0.75;;;0.70;99.90;;;;;;21065698;28;20495;-51
2021/12/27 05:57:39;;;;;;;0.75;0.40;;;0.60;99.90;;;;;;21065986;28;20048;-51
2021/12/27 06:07:42;;;;;;;1.65;0.50;;;0.30;99.90;;;;;;21048665;28;20044;-50
2021/12/27 06:17:44;;;;;;;1.77;1.10;;;0.20;99.90;;;;;;21065291;28;20066;-51
2021/12/27 06:27:47;;;;;;;1.33;0.47;;;0.20;99.90;;;;;;21064929;28;20449;-50
2021/12/27 06:37:50;;;;;;;1.63;0.80;;;0.30;99.90;;;;;;21065039;28;20093;-50
2021/12/27 06:47:54;;;;;;;2.15;1.10;;;0.40;99.90;;;;;;21064437;28;20132;-52
2021/12/27 06:57:56;;;;;;;2.78;0.75;;;0.40;99.90;;;;;;21074302;28;20039;-51
2021/12/27 07:07:58;;;;;;;1.38;0.60;;;0.50;99.90;;;;;;21078734;28;20051;-51
2021/12/27 07:18:01;;;;;;;0.90;0.40;;;0.80;99.90;;;;;;21078809;28;20052;-50
2021/12/27 07:28:03;;;;;;;1.45;0.50;;;1.00;99.90;;;;;;21060300;28;20097;-49
2021/12/27 07:38:06;;;;;;;1.85;0.70;;;1.20;99.90;;;;;;21077848;28;20036;-52
2021/12/27 07:48:10;;;;;;;3.65;1.83;;;1.40;99.90;;;;;;21075519;28;20399;-53
2021/12/27 07:58:14;;;;;;;2.67;1.80;;;1.70;99.90;;;;;;21075070;28;20365;-51
2021/12/27 08:08:16;;;;;;;2.55;1.58;;;2.10;99.90;;;;;;21073141;28;20052;-51
2021/12/27 08:18:20;;;;;;;2.55;1.42;;;2.60;99.90;;;;;;21073117;28;20040;-49
2021/12/27 08:28:22;;;;;;;3.75;1.50;;;3.00;99.90;;;;;;21071834;28;20032;-49
2021/12/27 08:38:25;;;;;;;2.63;1.20;;;3.60;99.90;;;;;;21071407;28;20036;-51
2021/12/27 08:48:27;;;;;;;1.40;0.90;;;4.60;99.90;;;;;;21070827;28;20035;-51
2021/12/27 08:58:31;;;;;;;2.97;1.77;;;5.70;99.90;;;;;;21069644;28;20032;-52
2021/12/27 09:08:33;;;;;;;2.03;1.05;;;6.70;99.90;;;;;;21068750;28;20048;-50
2021/12/27 09:18:37;;;;;;;3.08;1.77;;;7.40;99.90;;;;;;21068478;28;20484;-51
2021/12/27 09:28:39;;;;;;;3.40;1.77;;;7.30;99.90;;;;;;21067699;28;20180;-50
2021/12/27 09:38:42;;;;;;;3.15;2.05;;;6.20;99.90;;;;;;21067162;28;20085;-54
2021/12/27 09:48:46;;;;;;;3.83;2.55;;;5.40;99.90;;;;;;21066959;28;20032;-52
2021/12/27 09:58:49;;;;;;;6.35;3.75;;;5.10;99.90;;;;;;21066276;28;20032;-51
2021/12/27 10:08:59;;;;;;;7.35;4.05;;;5.10;99.90;;;;;;21047954;28;20048;-52
2021/12/27 10:19:06;;;;;;;3.78;2.63;;;5.00;99.90;;;;;;21065528;28;20093;-53
2021/12/27 10:29:19;;;;;;;3.35;2.25;;;4.70;99.90;;;;;;21069885;28;20032;-52
2021/12/27 10:39:22;;;;;;;3.88;2.40;;;4.90;99.90;;;;;;21080628;28;20040;-52
2021/12/27 10:49:47;;;;;;;4.22;2.03;;;5.10;99.90;;;;;;21080411;28;20062;-50
2021/12/27 10:59:50;;;;;;;3.17;1.80;;;6.00;99.90;;;;;;21080987;28;20032;-51
2021/12/27 11:09:53;;;;;;;3.80;2.60;;;6.60;99.90;;;;;;21078376;28;20085;-52
2021/12/27 11:19:56;;;;;;;2.85;1.88;;;6.60;99.90;;;;;;21077533;28;20096;-51
2021/12/27 11:30:11;;;;;;;1.92;1.00;;;6.40;99.90;;;;;;21078257;28;20061;-52
2021/12/27 11:40:16;;;;;;;4.93;2.17;;;6.60;99.90;;;;;;21077858;28;20032;-50
2021/12/27 11:50:19;;;;;;;1.25;0.45;;;6.50;99.90;;;;;;21076367;28;20044;-51
2021/12/27 12:00:32;;;;;;;2.72;1.52;;;6.90;99.90;;;;;;21074785;28;20024;-49
2021/12/27 12:10:37;;;;;;;6.72;4.13;;;7.00;99.90;;;;;;21073443;28;20047;-52
2021/12/27 12:20:39;;;;;;;10.77;6.70;;;6.50;99.90;;;;;;21074584;28;20066;-51
2021/12/27 12:30:50;;;;;;;13.07;8.48;;;6.00;99.90;;;;;;21072970;28;20161;-52
2021/12/27 12:41:01;;;;;;;10.85;6.93;;;5.70;99.90;;;;;;21055431;28;20081;-53
2021/12/27 12:51:03;;;;;;;10.17;6.20;;;5.50;99.90;;;;;;21071639;28;20545;-50
2021/12/27 13:01:09;;;;;;;13.60;7.82;;;5.10;99.90;;;;;;21070042;28;20475;-51
2021/12/27 13:11:17;;;;;;;9.32;5.85;;;4.90;99.90;;;;;;21068887;28;20040;-50
2021/12/27 13:21:20;;;;;;;13.32;6.80;;;5.10;99.90;;;;;;21068339;28;20036;-51
2021/12/27 13:31:27;;;;;;;12.45;7.43;;;5.10;99.90;;;;;;21067899;28;20036;-51
2021/12/27 13:41:33;;;;;;;11.45;6.55;;;4.70;99.90;;;;;;21067178;28;20540;-50
2021/12/27 13:51:37;;;;;;;12.98;8.45;;;4.40;99.90;;;;;;21067014;28;20077;-51
2021/12/27 14:01:53;;;;;;;13.55;8.80;;;4.20;99.90;;;;;;21067365;28;20097;-51
2021/12/27 14:12:01;;;;;;;13.25;8.55;;;4.00;99.90;;;;;;21083634;28;20069;-51
2021/12/27 14:22:12;;;;;;;14.73;9.43;;;3.70;99.90;;;;;;21082537;28;20050;-54
2021/12/27 14:32:18;;;;;;;16.15;10.55;;;3.50;99.90;;;;;;21081332;28;20428;-49
2021/12/27 14:42:25;;;;;;;21.38;11.50;;;3.20;99.90;;;;;;21082426;28;20040;-49
2021/12/27 14:52:28;;;;;;;18.17;10.45;;;3.10;99.90;;;;;;21080090;28;20036;-55
2021/12/27 15:02:31;;;;;;;15.82;10.43;;;3.00;99.90;;;;;;21079018;28;20061;-51
2021/12/27 15:12:35;;;;;;;19.77;11.30;;;3.10;99.90;;;;;;21078355;28;20105;-52
2021/12/27 15:22:38;;;;;;;17.02;9.23;;;3.10;99.90;;;;;;21077338;28;20039;-51
2021/12/27 15:32:41;;;;;;;13.48;7.45;;;2.90;99.90;;;;;;21060380;28;20044;-49
2021/12/27 15:42:47;;;;;;;8.70;4.88;;;2.80;99.90;;;;;;21075815;28;20028;-50
2021/12/27 15:52:50;;;;;;;11.35;6.57;;;2.90;99.90;;;;;;21075050;28;20058;-50
2021/12/27 16:02:56;;;;;;;5.90;3.50;;;2.70;99.90;;;;;;21057774;28;20040;-50
2021/12/27 16:13:00;;;;;;;4.72;3.20;;;2.80;99.90;;;;;;21073850;28;20553;-50
2021/12/27 16:23:02;;;;;;;6.30;3.80;;;2.80;99.90;;;;;;21075158;28;20085;-49
2021/12/27 16:33:04;;;;;;;8.90;4.20;;;2.80;99.90;;;;;;21071256;28;20035;-52
2021/12/27 16:43:07;;;;;;;8.80;5.30;;;2.80;99.90;;;;;;21070834;28;20032;-50
2021/12/27 16:53:09;;;;;;;7.72;5.05;;;2.70;99.90;;;;;;21071312;28;20156;-50
2021/12/27 17:03:13;;;;;;;9.93;5.80;;;2.60;99.90;;;;;;21069783;28;20108;-49
2021/12/27 17:13:16;;;;;;;6.05;3.88;;;2.50;99.90;;;;;;21068903;28;20056;-51
2021/12/27 17:23:19;;;;;;;6.72;4.07;;;2.40;99.90;;;;;;21068190;28;20491;-51
2021/12/27 17:33:23;;;;;;;10.93;6.53;;;2.40;99.90;;;;;;21067200;28;20109;-50
2021/12/27 17:43:31;;;;;;;8.48;4.97;;;2.40;99.90;;;;;;21066856;28;20139;-50
2021/12/27 17:53:33;;;;;;;9.45;5.75;;;2.30;99.90;;;;;;21066948;28;20028;-52
2021/12/27 18:03:37;;;;;;;11.07;6.03;;;2.30;99.90;;;;;;21067014;28;20487;-50
2021/12/27 18:13:40;;;;;;;8.23;5.10;;;2.30;99.90;;;;;;21065840;28;20052;-53
2021/12/27 18:23:43;;;;;;;9.10;5.65;;;2.40;99.90;;;;;;21064925;28;20040;-51
2021/12/27 18:33:46;;;;;;;11.80;6.75;;;2.40;99.90;;;;;;21066163;28;20090;-51
2021/12/27 18:43:49;;;;;;;14.20;7.30;;;2.40;99.90;;;;;;21065277;28;20032;-52
2021/12/27 18:53:52;;;;;;;12.60;6.47;;;2.50;99.90;;;;;;21074952;28;20070;-51
2021/12/27 19:03:58;;;;;;;12.60;7.05;;;2.50;99.90;;;;;;21062418;28;20062;-50
2021/12/27 19:14:01;;;;;;;12.18;7.28;;;2.50;99.90;;;;;;21078061;28;20048;-50
2021/12/27 19:24:03;;;;;;;49.55;9.05;;;2.60;99.90;;;;;;21077604;28;20040;-51
2021/12/27 19:34:06;;;;;;;175.85;16.33;;;2.50;99.90;;;;;;21078506;28;20097;-51
2021/12/27 19:44:09;;;;;;;130.20;14.52;;;2.40;99.90;;;;;;21075882;28;20032;-50
2021/12/27 19:54:12;;;;;;;148.18;15.20;;;2.40;99.90;;;;;;21075176;28;20407;-51
2021/12/27 20:04:15;;;;;;;112.47;14.32;;;2.30;99.90;;;;;;21073053;28;20370;-50
2021/12/27 20:14:19;;;;;;;188.75;15.75;;;2.30;99.90;;;;;;21073685;28;20561;-50
2021/12/27 20:24:22;;;;;;;132.40;11.07;;;2.30;99.90;;;;;;21072686;28;20109;-55
2021/12/27 20:34:38;;;;;;;273.08;17.35;;;2.30;99.90;;;;;;21072944;28;20435;-48
2021/12/27 20:44:40;;;;;;;128.32;10.18;;;2.30;99.90;;;;;;21071131;28;20085;-51
2021/12/27 20:54:45;;;;;;;57.45;8.23;;;2.30;99.90;;;;;;21070453;28;20399;-53
2021/12/27 21:04:54;;;;;;;;;;;2.30;99.90;;;;;;21070095;28;20093;-49
2021/12/27 21:14:57;;;;;;;14.73;5.65;;;2.30;99.90;;;;;;21068745;28;19912;-50
2021/12/27 21:25:01;;;;;;;22.88;5.88;;;2.20;99.90;;;;;;21068072;28;20506;-53
2021/12/27 21:35:05;;;;;;;11.32;5.53;;;2.20;99.90;;;;;;21050617;28;20032;-49
2021/12/27 21:45:08;;;;;;;7.72;4.50;;;2.20;99.90;;;;;;21067446;28;20032;-49
2021/12/27 21:55:15;;;;;;;8.20;4.40;;;2.10;99.90;;;;;;21066758;28;20093;-49
2021/12/27 22:05:18;;;;;;;9.15;5.05;;;2.20;99.90;;;;;;21066240;28;20032;-49
2021/12/27 22:15:21;;;;;;;9.27;5.07;;;2.20;99.90;;;;;;21065334;28;20113;-51
2021/12/27 22:25:25;;;;;;;8.30;4.10;;;2.10;99.90;;;;;;21070833;28;20120;-49
2021/12/27 22:35:28;;;;;;;26.27;6.25;;;2.10;99.90;;;;;;21082609;28;20085;-49
2021/12/27 22:45:31;;;;;;;9.65;5.15;;;2.10;99.90;;;;;;21081310;28;20036;-49
2021/12/27 22:55:35;;;;;;;183.40;14.23;;;2.10;99.90;;;;;;21080010;28;20028;-49
2021/12/27 23:05:39;;;;;;;10.55;5.00;;;2.00;99.90;;;;;;21079444;28;20032;-50
2021/12/27 23:15:42;;;;;;;86.82;8.05;;;2.00;99.90;;;;;;21078398;28;20457;-51
2021/12/27 23:25:47;;;;;;;10.55;4.07;;;2.00;99.90;;;;;;21077423;28;20066;-49
2021/12/27 23:35:53;;;;;;;7.95;4.38;;;2.10;99.90;;;;;;21077859;28;20097;-52
2021/12/27 23:45:56;;;;;;;17.65;5.00;;;2.20;99.90;;;;;;21078841;28;20032;-49
2021/12/27 23:55:59;;;;;;;9.60;4.13;;;2.30;99.90;;;;;;21074925;28;20439;-50
